Terminal Aerodrome Forecast
Issued by NWS Pueblo, CO

Home | Current Version | Previous Version | Text Only | Print | Product List | Glossary On
Versions: 1 2 3 4 5 6 7 8 9 10 11 12 13 14 15 16 17 18 19 20 21 22 23 24 25 26 27 28 29 30 31 32 33 34 35 36 37 38 39 40 41 42 43 44 45 46 47 48 49
292
FTUS45 KPUB 210903 AAB
TAFCOS
TAF AMD
KCOS 210903Z 2109/2206 02008KT 3SM BR VCSH OVC006
     FM211000 02012KT P6SM VCSH SCT008 OVC015
     FM211400 35012G22KT P6SM SCT025 BKN060
     FM212100 08010KT P6SM VCSH SCT040 BKN090
     FM220200 14008KT P6SM SCT020 BKN040=

USA.gov is the U.S. government's official web portal to all federal, state and local government web resources and services.